Time;durP1;ratioP1;P1;durP2;ratioP2;P2;SDS_P1;SDS_P2;PMS_P1;PMS_P2;Temp;Humidity;BMP_temperature;BMP_pressure;BME280_temperature;BME280_humidity;BME280_pressure;Samples;Min_cycle;Max_cycle;Signal;HPM_P1;HPM_P2
2022/02/07 00:01:36;;;;;;;;;1.25;1.25;;;;;8.10;82.73;100811.53;4920903;28;47916;-66
2022/02/07 00:04:04;;;;;;;;;1.00;1.00;;;;;8.07;82.22;100809.00;4918296;28;46109;-65
2022/02/07 00:06:29;;;;;;;;;2.50;1.00;;;;;8.06;82.21;100823.88;4922237;28;45377;-65
2022/02/07 00:08:54;;;;;;;;;2.75;1.00;;;;;8.05;81.26;100824.78;4921080;28;45299;-65
2022/02/07 00:11:21;;;;;;;;;4.00;1.00;;;;;7.99;82.51;100832.81;4918602;28;47064;-66
2022/02/07 00:13:46;;;;;;;;;4.25;1.25;;;;;8.04;81.58;100857.13;4923341;28;45500;-65
2022/02/07 00:16:12;;;;;;;;;1.00;1.00;;;;;8.06;81.02;100865.81;4922535;28;45353;-65
2022/02/07 00:18:39;;;;;;;;;3.00;3.00;;;;;8.02;78.38;100862.38;4920535;28;45267;-65
2022/02/07 00:21:05;;;;;;;;;3.25;1.00;;;;;8.03;78.87;100853.63;4919716;28;47290;-66
2022/02/07 00:23:31;;;;;;;;;0.00;0.00;;;;;8.01;79.81;100863.28;4921874;28;45375;-64
2022/02/07 00:25:56;;;;;;;;;2.75;1.00;;;;;7.98;78.11;100858.13;4923952;28;45332;-65
2022/02/07 00:28:22;;;;;;;;;3.00;1.50;;;;;7.97;78.02;100863.41;4922282;28;45370;-66
2022/02/07 00:30:48;;;;;;;;;1.00;1.00;;;;;7.93;78.32;100886.19;4922817;28;46346;-65
2022/02/07 00:33:14;;;;;;;;;4.75;1.00;;;;;7.89;78.40;100888.00;4921081;28;45305;-67
2022/02/07 00:35:39;;;;;;;;;2.75;1.50;;;;;7.89;78.33;100890.63;4922770;28;45262;-65
2022/02/07 00:38:12;;;;;;;;;2.50;2.50;;;;;7.89;77.60;100897.63;4920679;28;45567;-65
2022/02/07 00:45:58;;;;;;;;;3.75;2.00;;;;;7.89;79.35;100903.72;4922917;28;45224;-65
2022/02/07 00:48:24;;;;;;;;;4.00;2.00;;;;;7.87;77.91;100910.75;4922419;28;45283;-65
2022/02/07 00:50:51;;;;;;;;;2.00;1.00;;;;;7.89;78.65;100937.78;4922243;28;46330;-66
2022/02/07 00:53:17;;;;;;;;;4.75;2.00;;;;;7.89;79.07;100937.78;4921528;28;45468;-66
2022/02/07 00:55:42;;;;;;;;;3.25;2.00;;;;;7.88;78.66;100937.81;4922659;28;45457;-66
2022/02/07 00:58:08;;;;;;;;;2.00;2.00;;;;;7.85;78.54;100946.59;4923427;28;45313;-65
2022/02/07 01:00:34;;;;;;;;;1.25;1.25;;;;;7.83;79.22;100956.25;4919211;28;47156;-65
2022/02/07 01:02:59;;;;;;;;;3.00;1.75;;;;;7.79;78.55;100967.69;4920952;28;45303;-64
2022/02/07 01:05:25;;;;;;;;;2.25;1.00;;;;;7.77;78.27;100982.56;4922566;28;45339;-64
2022/02/07 01:07:52;;;;;;;;;2.75;2.00;;;;;7.74;78.37;100980.03;4919784;28;45569;-65
2022/02/07 01:10:25;;;;;;;;;3.00;1.75;;;;;7.71;77.14;100973.13;4918852;28;45280;-66
2022/02/07 01:15:49;;;;;;;;;2.25;1.00;;;;;7.63;74.45;101022.16;4921877;28;45366;-65
2022/02/07 01:48:15;;;;;;;;;3.00;1.00;;;;;7.14;67.12;101111.19;4886299;28;45296;-66
2022/02/07 01:55:44;;;;;;;;;1.50;0.25;;;;;7.07;64.90;101125.25;4919119;28;45379;-65
2022/02/07 01:58:11;;;;;;;;;7.75;1.75;;;;;7.06;67.32;101139.22;4917994;28;45219;-64
2022/02/07 02:00:39;;;;;;;;;1.25;1.25;;;;;7.05;66.08;101144.50;4918976;28;45656;-63
2022/02/07 02:03:05;;;;;;;;;4.75;0.25;;;;;6.96;66.51;101129.81;4918397;28;46444;-65
2022/02/07 02:05:37;;;;;;;;;2.00;1.00;;;;;7.00;66.08;101158.53;4917946;28;45432;-64
2022/02/07 02:08:07;;;;;;;;;5.50;1.00;;;;;6.99;65.49;101184.69;4918602;28;45285;-65
2022/02/07 02:10:34;;;;;;;;;3.00;1.00;;;;;6.96;64.87;101169.03;4918551;28;45280;-64
2022/02/07 02:37:16;;;;;;;;;1.25;0.50;;;;;6.73;65.33;101219.94;4920755;28;45338;-64
2022/02/07 02:48:23;;;;;;;;;2.00;2.00;;;;;6.63;66.79;101254.94;4898818;28;45467;-65
2022/02/07 02:50:51;;;;;;;;;3.00;1.00;;;;;6.60;65.69;101273.28;4920473;28;45366;-64
2022/02/07 02:53:18;;;;;;;;;4.75;2.00;;;;;6.58;67.03;101283.72;4920679;28;45350;-66
2022/02/07 02:55:45;;;;;;;;;2.00;0.00;;;;;6.55;67.07;101274.19;4920459;28;47140;-65
2022/02/07 02:58:12;;;;;;;;;2.75;1.25;;;;;6.50;67.01;101269.91;4920475;28;45361;-64
2022/02/07 03:00:40;;;;;;;;;1.00;1.00;;;;;6.51;65.82;101277.72;4921085;28;45180;-62
2022/02/07 03:03:06;;;;;;;;;2.00;0.00;;;;;6.50;66.23;101276.00;4923298;28;45532;-63
2022/02/07 03:05:32;;;;;;;;;4.00;1.00;;;;;6.47;67.42;101281.28;4920695;28;46418;-63
2022/02/07 03:07:58;;;;;;;;;1.75;1.00;;;;;6.45;66.41;101275.19;4921160;28;45368;-63
2022/02/07 03:13:02;;;;;;;;;4.25;0.75;;;;;6.42;67.02;101272.63;4921227;28;45505;-64
2022/02/07 03:18:12;;;;;;;;;2.75;0.75;;;;;6.33;65.94;101272.69;4920966;28;45237;-65
2022/02/07 03:20:37;;;;;;;;;1.00;1.00;;;;;6.36;67.38;101277.88;4923495;28;45287;-65
2022/02/07 03:23:02;;;;;;;;;5.00;1.00;;;;;6.34;66.62;101280.53;4928486;28;45267;-65
2022/02/07 03:25:28;;;;;;;;;4.25;1.00;;;;;6.32;65.92;101302.31;4928583;28;46965;-65
2022/02/07 03:27:53;;;;;;;;;2.25;0.75;;;;;6.31;67.58;101311.03;4920872;28;45662;-65
2022/02/07 03:30:19;;;;;;;;;0.75;0.75;;;;;6.30;66.97;101320.66;4922735;28;45300;-66
2022/02/07 03:32:44;;;;;;;;;2.00;1.25;;;;;6.27;66.41;101311.06;4922351;28;45536;-66
2022/02/07 03:35:09;;;;;;;;;4.75;1.00;;;;;6.25;66.97;101307.63;4921069;28;45341;-65
2022/02/07 03:37:35;;;;;;;;;2.50;0.50;;;;;6.22;67.33;101323.31;4921465;28;45324;-63
2022/02/07 03:40:01;;;;;;;;;4.50;1.00;;;;;6.23;67.22;101335.50;4921375;28;45396;-65
2022/02/07 03:42:26;;;;;;;;;1.00;1.00;;;;;6.22;68.02;101349.44;4921189;28;45467;-65
2022/02/07 03:44:52;;;;;;;;;2.25;1.00;;;;;6.20;68.18;101359.03;4921209;28;46204;-65
2022/02/07 03:47:17;;;;;;;;;1.00;0.00;;;;;6.19;68.69;101351.25;4926451;28;45383;-65
2022/02/07 03:49:42;;;;;;;;;3.75;1.50;;;;;6.18;67.69;101367.78;4921027;28;45335;-64
2022/02/07 03:52:08;;;;;;;;;1.00;0.00;;;;;6.14;68.21;101357.38;4921150;28;45589;-67
2022/02/07 03:54:35;;;;;;;;;6.75;2.00;;;;;6.12;67.71;101372.19;4921316;28;47124;-65
2022/02/07 03:57:00;;;;;;;;;3.50;1.75;;;;;6.14;68.62;101382.63;4922261;28;45339;-64
2022/02/07 03:59:26;;;;;;;;;5.00;1.00;;;;;6.07;67.95;101375.72;4920106;28;45322;-65
2022/02/07 04:01:51;;;;;;;;;0.50;0.50;;;;;6.13;68.96;101388.72;4922920;28;45569;-66
2022/02/07 04:04:17;;;;;;;;;2.75;0.75;;;;;6.11;68.27;101380.03;4921813;28;45634;-64
2022/02/07 04:06:43;;;;;;;;;0.50;0.50;;;;;6.11;67.47;101380.03;4924365;28;45273;-65
2022/02/07 04:09:11;;;;;;;;;1.00;1.00;;;;;6.08;68.14;101390.50;4924302;28;45808;-65
2022/02/07 04:11:52;;;;;;;;;2.25;0.00;;;;;6.09;68.73;101400.06;4924978;28;45571;-65
2022/02/07 04:14:23;;;;;;;;;0.00;0.00;;;;;6.07;68.90;101402.72;4922350;28;46320;-64
2022/02/07 04:16:49;;;;;;;;;1.00;1.00;;;;;6.06;67.94;101408.81;4921247;28;45441;-65
2022/02/07 04:19:20;;;;;;;;;1.50;1.00;;;;;6.02;68.40;101404.50;4921896;28;45344;-66
2022/02/07 04:21:48;;;;;;;;;2.25;1.00;;;;;6.03;67.94;101418.41;4923030;28;45494;-65
2022/02/07 04:24:14;;;;;;;;;5.25;2.00;;;;;6.03;68.69;101431.47;4920833;28;45636;-64
2022/02/07 04:26:44;;;;;;;;;2.50;1.25;;;;;6.00;67.65;101421.91;4922154;28;45382;-65
2022/02/07 04:29:10;;;;;;;;;3.25;1.50;;;;;5.99;67.99;101431.47;4922765;28;45310;-66
2022/02/07 04:31:35;;;;;;;;;3.00;1.00;;;;;6.02;68.35;101440.19;4922131;28;45493;-65
2022/02/07 04:34:01;;;;;;;;;3.50;2.00;;;;;6.01;68.62;101449.78;4923577;28;45390;-64
2022/02/07 04:36:26;;;;;;;;;4.50;0.50;;;;;5.92;68.56;101434.16;4923185;28;45399;-67
2022/02/07 04:38:52;;;;;;;;;4.00;1.25;;;;;5.98;68.45;101452.38;4920990;28;45382;-66
2022/02/07 04:41:17;;;;;;;;;4.75;1.00;;;;;5.98;68.68;101468.91;4920946;28;45436;-65
2022/02/07 04:43:50;;;;;;;;;5.75;1.75;;;;;5.97;67.88;101466.31;4921099;28;46385;-65
2022/02/07 04:51:49;;;;;;;;;2.50;1.00;;;;;5.93;68.94;101467.22;4924126;28;45185;-66
2022/02/07 04:59:36;;;;;;;;;6.00;1.00;;;;;5.85;68.84;101475.97;4919322;28;45445;-65
2022/02/07 05:02:10;;;;;;;;;5.00;1.00;;;;;5.88;68.39;101485.50;4919880;28;45518;-64
2022/02/07 05:04:41;;;;;;;;;3.75;1.00;;;;;5.85;69.08;101491.63;4919578;28;46402;-65
2022/02/07 05:15:18;;;;;;;;;2.50;2.00;;;;;5.80;68.69;101509.03;4921008;28;45432;-64
2022/02/07 05:17:44;;;;;;;;;9.00;2.00;;;;;5.79;68.63;101516.91;4923117;28;45428;-66
2022/02/07 05:20:10;;;;;;;;;3.00;1.00;;;;;5.79;68.46;101516.91;4921753;28;45303;-65
2022/02/07 05:22:36;;;;;;;;;6.50;1.75;;;;;5.76;68.78;101524.75;4920576;28;45184;-64
2022/02/07 05:25:03;;;;;;;;;6.25;2.75;;;;;5.78;69.35;101534.28;4919695;28;45572;-65
2022/02/07 05:27:28;;;;;;;;;4.50;2.00;;;;;5.78;68.93;101536.03;4918287;28;45433;-64
2022/02/07 05:29:54;;;;;;;;;2.25;1.00;;;;;5.78;69.52;101536.03;4920379;28;45637;-65
2022/02/07 05:32:19;;;;;;;;;1.75;1.00;;;;;5.76;69.40;101550.84;4921076;28;45317;-66
2022/02/07 05:34:44;;;;;;;;;5.75;2.75;;;;;5.73;69.06;101535.19;4921003;28;45392;-64
2022/02/07 05:37:15;;;;;;;;;4.50;1.00;;;;;5.74;68.88;101545.63;4920765;28;45429;-66
2022/02/07 05:39:43;;;;;;;;;6.25;1.00;;;;;5.72;68.91;101549.97;4920016;28;45240;-66
2022/02/07 05:42:09;;;;;;;;;3.50;2.00;;;;;5.67;69.64;101552.63;4920573;28;45592;-64
2022/02/07 05:44:38;;;;;;;;;4.25;2.00;;;;;5.68;68.96;101564.81;4918562;28;46970;-66
2022/02/07 05:47:04;;;;;;;;;3.00;2.00;;;;;5.68;69.71;101567.41;4919454;28;45355;-63
2022/02/07 05:49:30;;;;;;;;;3.00;1.00;;;;;5.68;69.86;101580.47;4919707;28;45549;-64
2022/02/07 05:51:55;;;;;;;;;5.00;2.50;;;;;5.67;69.20;101585.69;4920105;28;45329;-66
2022/02/07 05:54:22;;;;;;;;;4.25;1.00;;;;;5.66;69.35;101592.66;4920335;28;46859;-64
2022/02/07 05:56:48;;;;;;;;;3.50;2.25;;;;;5.63;69.06;101590.06;4920408;28;45390;-66
2022/02/07 05:59:13;;;;;;;;;7.00;2.00;;;;;5.65;69.51;101603.09;4921844;28;45235;-64
2022/02/07 06:01:39;;;;;;;;;7.00;2.75;;;;;5.65;70.32;101603.09;4923301;28;45433;-65
2022/02/07 06:04:05;;;;;;;;;2.75;2.25;;;;;5.63;69.45;101603.13;4922331;28;46583;-65
2022/02/07 06:06:30;;;;;;;;;6.25;4.00;;;;;5.62;69.51;101608.31;4923674;28;45401;-67
2022/02/07 06:08:56;;;;;;;;;7.25;2.75;;;;;5.62;69.60;101616.16;4926638;28;45386;-66
2022/02/07 06:11:21;;;;;;;;;3.00;3.00;;;;;5.61;69.67;101617.03;4925552;28;45600;-65
2022/02/07 06:13:46;;;;;;;;;2.50;2.00;;;;;5.55;70.07;101617.94;4925251;28;45900;-65
2022/02/07 06:16:16;;;;;;;;;4.25;2.25;;;;;5.56;70.16;101623.13;4923250;28;45377;-64
2022/02/07 06:18:41;;;;;;;;;5.50;3.00;;;;;5.56;70.26;101628.34;4923214;28;45492;-65
2022/02/07 06:21:07;;;;;;;;;5.00;3.00;;;;;5.56;71.00;101635.31;4923899;28;45580;-64
2022/02/07 06:23:33;;;;;;;;;3.25;2.50;;;;;5.46;70.26;101617.94;4923779;28;46216;-65
2022/02/07 06:25:59;;;;;;;;;4.25;3.25;;;;;5.51;70.44;101629.25;4924718;28;45449;-64
2022/02/07 06:28:25;;;;;;;;;4.75;2.75;;;;;5.54;71.08;101639.69;4923891;28;45451;-65
2022/02/07 06:30:50;;;;;;;;;2.75;1.00;;;;;5.51;70.69;101632.72;4926121;28;45426;-65
2022/02/07 06:33:15;;;;;;;;;4.00;2.75;;;;;5.52;70.64;101641.44;4926776;28;45333;-65
2022/02/07 06:35:41;;;;;;;;;7.00;2.25;;;;;5.52;71.14;101644.88;4927283;28;45385;-65
2022/02/07 06:38:06;;;;;;;;;3.00;3.00;;;;;5.52;71.00;101654.47;4924603;28;45260;-67
2022/02/07 06:40:32;;;;;;;;;2.50;2.00;;;;;5.51;71.14;101652.75;4923851;28;45351;-67
2022/02/07 06:42:57;;;;;;;;;1.75;1.00;;;;;5.49;71.39;101651.88;4923002;28;46235;-67
2022/02/07 06:45:22;;;;;;;;;6.25;1.25;;;;;5.48;71.43;101668.41;4923103;28;45256;-68
2022/02/07 06:47:48;;;;;;;;;3.50;1.00;;;;;5.48;71.74;101668.41;4923452;28;45271;-67
2022/02/07 06:50:13;;;;;;;;;8.25;2.00;;;;;5.49;71.39;101675.34;4925379;28;45224;-66
2022/02/07 06:52:39;;;;;;;;;7.25;3.00;;;;;5.51;71.94;101673.63;4922780;28;45810;-70
2022/02/07 06:55:05;;;;;;;;;3.25;1.00;;;;;5.52;71.78;101685.78;4922958;28;45385;-67
2022/02/07 06:57:30;;;;;;;;;4.00;3.00;;;;;5.51;71.64;101691.88;4922932;28;45418;-65
2022/02/07 06:59:55;;;;;;;;;3.75;3.25;;;;;5.50;71.36;101682.31;4921672;28;45348;-64
2022/02/07 07:02:26;;;;;;;;;5.75;3.50;;;;;5.43;72.22;101677.97;4923124;28;46309;-69
2022/02/07 07:04:52;;;;;;;;;5.00;3.00;;;;;5.48;72.11;101690.13;4923418;28;45275;-67
2022/02/07 07:07:18;;;;;;;;;6.50;3.50;;;;;5.48;71.87;101694.50;4924156;28;45481;-66
2022/02/07 07:09:45;;;;;;;;;4.00;4.00;;;;;5.44;71.93;101698.84;4923797;28;45311;-72
2022/02/07 07:12:11;;;;;;;;;5.50;3.00;;;;;5.45;72.27;101707.56;4923785;28;46263;-66
2022/02/07 07:14:50;;;;;;;;;4.25;2.50;;;;;5.44;71.93;101711.88;4924243;28;45482;-68
2022/02/07 07:17:15;;;;;;;;;5.25;2.00;;;;;5.41;72.26;101698.84;4922890;28;45483;-65
2022/02/07 07:19:40;;;;;;;;;5.75;4.00;;;;;5.43;72.21;101704.94;4923135;28;45421;-68
2022/02/07 07:22:06;;;;;;;;;7.00;3.00;;;;;5.44;72.41;101711.88;4925780;28;45351;-68
2022/02/07 07:24:33;;;;;;;;;2.25;1.00;;;;;5.45;71.99;101728.44;4924097;28;45273;-66
2022/02/07 07:26:59;;;;;;;;;8.00;3.25;;;;;5.42;72.23;101724.06;4921876;28;45468;-68
2022/02/07 07:29:30;;;;;;;;;8.00;4.00;;;;;5.46;72.78;101727.56;4922700;28;45294;-67
2022/02/07 07:32:01;;;;;;;;;5.50;4.00;;;;;5.45;72.19;101737.09;4920174;28;46909;-67
2022/02/07 07:34:27;;;;;;;;;5.75;4.00;;;;;5.50;72.76;101751.03;4922497;28;45453;-67
2022/02/07 07:36:53;;;;;;;;;8.75;3.50;;;;;5.51;72.41;101752.75;4924067;28;45525;-65
2022/02/07 07:39:19;;;;;;;;;5.00;4.00;;;;;5.53;72.71;101752.78;4924835;28;45355;-63
2022/02/07 07:41:45;;;;;;;;;3.00;2.50;;;;;5.54;72.38;101763.22;4922892;28;45490;-65
2022/02/07 07:44:13;;;;;;;;;4.00;2.75;;;;;5.56;72.90;101760.59;4921654;28;45474;-64
2022/02/07 07:46:40;;;;;;;;;6.00;3.25;;;;;5.27;72.35;101724.91;4922062;28;45373;-65
2022/02/07 07:49:17;;;;;;;;;6.25;3.00;;;;;5.61;72.13;101787.59;4918522;28;45463;-67
2022/02/07 07:51:49;;;;;;;;;4.75;3.00;;;;;5.64;72.37;101797.13;4919062;28;45576;-68
2022/02/07 07:54:24;;;;;;;;;9.75;5.25;;;;;5.64;72.85;101800.63;4919703;28;45470;-67
2022/02/07 08:02:21;;;;;;;;;4.75;3.00;;;;;5.76;72.67;101818.00;4900544;29;45796;-71
2022/02/07 08:04:48;;;;;;;;;6.75;3.00;;;;;5.79;72.60;101828.47;4918358;28;45565;-64
2022/02/07 08:07:23;;;;;;;;;7.50;3.50;;;;;5.85;72.35;101828.50;4920193;28;45518;-67
2022/02/07 08:10:05;;;;;;;;;5.00;3.00;;;;;5.88;71.58;101827.59;4919480;28;45457;-62
2022/02/07 08:12:34;;;;;;;;;5.00;4.25;;;;;5.78;72.25;101818.88;4915588;28;45378;-65
2022/02/07 08:14:59;;;;;;;;;5.75;3.00;;;;;5.98;72.35;101850.22;4919945;28;45413;-66
2022/02/07 08:17:25;;;;;;;;;3.50;3.50;;;;;6.02;71.84;101845.91;4918848;28;45698;-65
2022/02/07 08:19:52;;;;;;;;;8.00;3.00;;;;;6.07;71.15;101848.50;4921418;28;45327;-63
2022/02/07 08:22:25;;;;;;;;;6.00;3.00;;;;;6.08;71.36;101855.47;4919589;28;45489;-65
2022/02/07 08:25:00;;;;;;;;;5.50;3.25;;;;;6.09;71.42;101859.81;4922467;28;45493;-66
2022/02/07 08:27:27;;;;;;;;;4.50;3.00;;;;;6.13;71.58;101866.78;4922003;28;45354;-65
2022/02/07 08:29:54;;;;;;;;;12.00;6.25;;;;;6.14;71.59;101876.38;4922198;28;45061;-69
2022/02/07 08:32:20;;;;;;;;;7.00;5.00;;;;;6.18;71.64;101883.31;4921005;28;46122;-66
2022/02/07 08:34:45;;;;;;;;;6.00;5.50;;;;;6.22;71.99;101890.28;4920806;28;45397;-64
2022/02/07 08:37:11;;;;;;;;;12.75;6.50;;;;;6.23;71.53;101880.72;4917664;28;45368;-63
2022/02/07 08:39:37;;;;;;;;;8.50;4.50;;;;;6.27;71.85;101892.91;4917255;28;45697;-61
2022/02/07 08:42:02;;;;;;;;;8.00;8.00;;;;;6.27;71.26;101891.16;4917315;28;45910;-61
2022/02/07 08:44:28;;;;;;;;;9.25;4.50;;;;;6.28;71.83;101898.13;4918904;28;45402;-64
2022/02/07 08:46:54;;;;;;;;;13.25;9.00;;;;;6.27;71.77;101895.53;4918961;28;45518;-61
2022/02/07 08:49:20;;;;;;;;;7.25;5.00;;;;;6.36;71.22;101898.13;4918173;28;45472;-65
2022/02/07 08:51:46;;;;;;;;;9.00;4.25;;;;;6.38;71.62;101898.16;4921071;28;46398;-63
2022/02/07 08:54:18;;;;;;;;;9.00;4.75;;;;;6.41;71.04;101901.59;4920240;28;45374;-65
2022/02/07 08:59:44;;;;;;;;;7.25;6.50;;;;;6.48;71.39;101915.56;4905245;28;45313;-63
2022/02/07 09:07:25;;;;;;;;;6.25;4.00;;;;;6.47;70.83;101931.22;4921590;28;45374;-64
2022/02/07 09:09:50;;;;;;;;;5.75;5.00;;;;;6.56;70.29;101945.16;4922917;28;45445;-63
2022/02/07 09:12:16;;;;;;;;;9.25;7.00;;;;;6.62;70.91;101953.88;4919625;28;46067;-63
2022/02/07 09:14:56;;;;;;;;;9.75;6.00;;;;;6.66;71.28;101960.84;4922362;28;45333;-62
2022/02/07 09:17:22;;;;;;;;;5.50;4.75;;;;;6.70;70.98;101979.13;4927809;28;45361;-63
2022/02/07 09:19:47;;;;;;;;;7.25;3.75;;;;;6.77;71.56;101979.09;4917959;28;45597;-61
2022/02/07 09:22:13;;;;;;;;;6.75;4.00;;;;;6.81;70.82;101984.34;4919179;28;45409;-62
2022/02/07 09:24:38;;;;;;;;;8.75;6.00;;;;;6.83;70.49;101979.09;4918719;28;45395;-62
2022/02/07 09:27:04;;;;;;;;;8.75;5.25;;;;;6.83;70.25;101984.31;4917358;28;45721;-63
2022/02/07 09:29:29;;;;;;;;;7.50;5.50;;;;;6.89;70.21;101999.16;4919544;28;45345;-62
2022/02/07 09:31:55;;;;;;;;;7.75;6.25;;;;;6.89;69.89;101999.16;4920840;28;45258;-63
2022/02/07 09:34:20;;;;;;;;;9.00;7.75;;;;;6.91;69.64;102007.88;4919760;28;45386;-62
2022/02/07 09:36:46;;;;;;;;;10.75;7.00;;;;;6.94;69.85;102026.16;4924285;28;45344;-61
2022/02/07 09:39:11;;;;;;;;;9.75;6.50;;;;;6.96;69.72;102021.81;4918999;28;45407;-66
2022/02/07 09:41:36;;;;;;;;;9.50;7.25;;;;;7.03;70.49;102028.75;4918646;28;46110;-63
2022/02/07 09:44:03;;;;;;;;;7.50;5.25;;;;;7.06;70.03;102043.59;4917516;28;45475;-63
2022/02/07 09:46:43;;;;;;;;;8.75;6.25;;;;;7.08;69.24;102045.31;4917873;28;45275;-62
2022/02/07 09:49:10;;;;;;;;;11.50;5.50;;;;;7.11;69.37;102058.41;4918199;28;45470;-66
2022/02/07 09:51:36;;;;;;;;;9.75;6.50;;;;;7.13;68.95;102068.88;4917806;28;46076;-63
2022/02/07 09:54:02;;;;;;;;;11.25;6.00;;;;;7.16;69.68;102061.88;4917626;28;45730;-64
2022/02/07 09:56:28;;;;;;;;;7.75;6.50;;;;;7.20;69.00;102062.75;4921149;28;45332;-62
2022/02/07 09:58:54;;;;;;;;;11.75;6.50;;;;;7.27;68.81;102071.44;4918360;28;45219;-61
2022/02/07 10:01:30;;;;;;;;;5.75;3.00;;;;;7.30;67.90;102076.69;4918036;28;46872;-62
2022/02/07 10:04:02;;;;;;;;;7.00;4.75;;;;;7.31;68.24;102081.03;4918381;28;45330;-61
2022/02/07 10:11:38;;;;;;;;;8.50;6.00;;;;;7.38;67.53;102101.09;4917719;28;45442;-63
2022/02/07 10:14:20;;;;;;;;;6.50;3.25;;;;;7.42;67.45;102105.47;4917634;28;45378;-62
2022/02/07 10:17:05;;;;;;;;;10.50;6.25;;;;;7.48;67.02;102106.34;4917544;28;45434;-62
2022/02/07 10:19:44;;;;;;;;;9.75;5.75;;;;;7.52;67.12;102102.81;4917439;28;45292;-63
2022/02/07 10:44:46;;;;;;;;;13.75;6.00;;;;;8.03;66.11;102124.44;4922225;28;45969;-62
2022/02/07 10:47:26;;;;;;;;;8.25;6.50;;;;;8.07;65.32;102112.22;4918211;28;45453;-62
2022/02/07 10:50:05;;;;;;;;;8.00;5.75;;;;;8.13;65.61;102119.16;4918144;28;45307;-62
2022/02/07 10:52:57;;;;;;;;;4.50;4.50;;;;;8.19;65.08;102119.13;4920178;28;45823;-64
2022/02/07 10:55:25;;;;;;;;;11.50;5.00;;;;;8.27;64.76;102119.09;4920578;28;47499;-62
2022/02/07 10:57:52;;;;;;;;;12.00;9.25;;;;;8.37;65.26;102115.53;4921089;28;45290;-62
2022/02/07 11:00:23;;;;;;;;;6.25;5.00;;;;;8.53;64.59;102115.47;4921323;28;45404;-62
2022/02/07 11:03:01;;;;;;;;;8.75;6.00;;;;;8.68;64.18;102104.00;4920735;28;45287;-65
2022/02/07 11:05:32;;;;;;;;;7.75;4.00;;;;;8.76;62.25;102110.91;4921539;28;46444;-62
2022/02/07 11:08:16;;;;;;;;;4.75;3.50;;;;;8.82;61.86;102112.63;4921236;28;45473;-63
2022/02/07 11:11:05;;;;;;;;;6.50;4.75;;;;;8.86;62.31;102114.34;4924515;28;45385;-64
2022/02/07 11:16:19;;;;;;;;;6.75;5.00;;;;;9.05;61.49;102116.81;4922322;28;45393;-65
2022/02/07 11:19:31;;;;;;;;;5.75;4.50;;;;;9.07;60.76;102125.53;4921480;28;45334;-64
2022/02/07 11:25:19;;;;;;;;;7.25;5.75;;;;;9.14;60.90;102105.38;4920602;28;45344;-62
2022/02/07 11:27:51;;;;;;;;;10.75;8.00;;;;;9.23;60.71;102105.28;4922191;28;46196;-63
2022/02/07 11:30:19;;;;;;;;;9.25;5.00;;;;;9.34;59.93;102113.03;4919994;28;45410;-63
2022/02/07 11:32:51;;;;;;;;;7.75;4.75;;;;;9.46;59.27;102114.66;4921215;28;45351;-63
2022/02/07 11:35:32;;;;;;;;;5.75;5.00;;;;;9.55;58.73;102119.81;4922097;28;45384;-64
2022/02/07 11:38:06;;;;;;;;;5.75;3.00;;;;;9.61;58.01;102126.75;4922025;28;46199;-62
2022/02/07 11:40:33;;;;;;;;;8.75;6.50;;;;;9.63;57.80;102127.63;4921478;28;45243;-66
2022/02/07 11:43:17;;;;;;;;;10.25;5.75;;;;;9.67;57.99;102131.06;4920474;28;45319;-64
2022/02/07 11:45:55;;;;;;;;;6.00;5.00;;;;;9.73;57.96;102131.88;4919868;28;45242;-62
2022/02/07 11:48:32;;;;;;;;;5.25;3.75;;;;;9.76;58.05;102126.59;4920107;28;45406;-63
2022/02/07 11:51:00;;;;;;;;;5.00;5.00;;;;;9.82;58.74;102124.78;4919862;28;45437;-62
2022/02/07 11:53:39;;;;;;;;;8.75;8.00;;;;;9.88;57.77;102135.22;4920168;28;45395;-64
2022/02/07 11:56:10;;;;;;;;;5.50;3.50;;;;;9.92;55.32;102136.91;4918766;28;45602;-64
2022/02/07 11:58:47;;;;;;;;;8.50;6.00;;;;;10.08;56.63;102145.47;4920361;28;46069;-61
2022/02/07 12:01:13;;;;;;;;;2.75;2.00;;;;;10.25;56.02;102145.22;4920071;28;45344;-64
2022/02/07 12:03:41;;;;;;;;;5.50;3.50;;;;;10.30;55.36;102148.66;4920837;28;45234;-62
2022/02/07 12:06:10;;;;;;;;;5.25;3.50;;;;;10.32;55.93;102141.63;4919418;28;45383;-63
2022/02/07 12:08:37;;;;;;;;;7.25;5.00;;;;;10.30;55.62;102138.16;4921196;28;45394;-62
2022/02/07 12:11:03;;;;;;;;;8.50;5.50;;;;;10.26;56.13;102131.19;4922386;28;45278;-62
2022/02/07 12:13:42;;;;;;;;;7.00;4.00;;;;;10.22;55.46;102133.00;4923983;28;45216;-63
2022/02/07 12:16:21;;;;;;;;;8.75;7.75;;;;;10.16;55.93;102134.84;4924824;28;45422;-64
2022/02/07 12:19:10;;;;;;;;;5.50;4.00;;;;;10.18;56.28;102136.56;4922838;28;45261;-64
2022/02/07 12:21:38;;;;;;;;;6.00;4.50;;;;;10.17;56.06;102141.84;4921422;28;45346;-63
2022/02/07 12:24:04;;;;;;;;;5.75;4.00;;;;;10.15;56.01;102127.84;4920576;28;45393;-64
2022/02/07 12:26:36;;;;;;;;;6.00;4.50;;;;;10.22;56.68;102132.13;4920018;28;45488;-65
2022/02/07 12:29:14;;;;;;;;;7.75;5.00;;;;;10.21;56.43;102110.25;4920024;28;46267;-65
2022/02/07 12:31:40;;;;;;;;;9.75;4.50;;;;;10.33;55.33;102124.97;4917953;28;45452;-63
2022/02/07 12:34:15;;;;;;;;;10.25;4.75;;;;;10.39;56.33;102131.91;4919955;28;45449;-64
2022/02/07 12:36:40;;;;;;;;;5.50;5.50;;;;;10.54;56.07;102141.34;4920670;28;45325;-65
2022/02/07 12:39:13;;;;;;;;;7.25;3.50;;;;;10.67;55.53;102131.50;4919842;28;46290;-64
2022/02/07 12:41:39;;;;;;;;;6.00;3.00;;;;;10.74;54.76;102127.88;4918771;28;45389;-67
2022/02/07 12:44:08;;;;;;;;;7.00;6.00;;;;;10.84;55.05;102122.47;4919438;28;45410;-64
2022/02/07 12:46:34;;;;;;;;;10.50;4.50;;;;;10.96;54.09;102124.91;4919613;28;45247;-65
2022/02/07 12:49:02;;;;;;;;;9.75;6.00;;;;;11.07;52.49;102130.84;4918539;28;46378;-65
2022/02/07 12:51:33;;;;;;;;;13.75;8.25;;;;;11.11;52.73;102121.13;4919250;28;45403;-63
2022/02/07 12:53:59;;;;;;;;;8.25;3.25;;;;;11.05;51.97;102123.88;4919867;28;45268;-64
2022/02/07 12:56:28;;;;;;;;;5.00;3.00;;;;;11.00;52.08;102123.09;4921237;28;45521;-63
2022/02/07 12:58:54;;;;;;;;;6.00;3.75;;;;;10.92;50.59;102129.38;4921636;28;46061;-64
2022/02/07 13:01:32;;;;;;;;;4.50;3.00;;;;;10.81;51.78;102118.16;4904960;28;45474;-64
2022/02/07 13:03:57;;;;;;;;;4.00;2.50;;;;;10.72;52.39;102115.66;4920954;28;45249;-62
2022/02/07 13:06:28;;;;;;;;;7.50;4.00;;;;;10.74;51.85;102112.09;4919025;28;45675;-62
2022/02/07 13:08:56;;;;;;;;;3.75;3.00;;;;;10.67;51.23;102107.81;4919736;28;46377;-61
2022/02/07 13:11:30;;;;;;;;;3.50;2.00;;;;;10.72;51.20;102118.28;4918925;28;45307;-62
2022/02/07 13:13:56;;;;;;;;;3.75;2.75;;;;;10.70;50.81;102114.81;4919013;28;45432;-64
2022/02/07 13:16:22;;;;;;;;;7.25;3.00;;;;;10.68;51.25;102127.13;4918838;28;45449;-63
2022/02/07 13:18:48;;;;;;;;;6.50;2.00;;;;;10.74;51.08;102129.66;4918523;28;46097;-61
2022/02/07 13:21:17;;;;;;;;;3.75;2.75;;;;;10.79;51.62;102130.47;4920140;28;45398;-62
2022/02/07 13:23:46;;;;;;;;;4.00;1.75;;;;;10.84;51.21;102128.63;4920495;28;45846;-63
2022/02/07 13:26:13;;;;;;;;;6.75;5.75;;;;;10.93;51.37;102123.19;4919871;28;45423;-62
2022/02/07 13:28:40;;;;;;;;;8.50;3.00;;;;;11.05;50.54;102121.25;4919835;28;45578;-64
2022/02/07 13:31:06;;;;;;;;;3.75;3.75;;;;;11.10;51.53;102124.66;4920067;28;45366;-60
2022/02/07 13:33:49;;;;;;;;;3.50;3.00;;;;;11.17;51.35;102118.41;4920031;28;45475;-62
2022/02/07 13:36:26;;;;;;;;;12.50;7.50;;;;;11.22;50.86;102127.09;4919888;28;45264;-64
2022/02/07 13:38:59;;;;;;;;;6.00;4.50;;;;;11.23;49.23;102138.50;4918814;28;46065;-64
2022/02/07 13:41:26;;;;;;;;;5.25;3.25;;;;;11.20;49.91;102141.19;4918371;28;45230;-63
2022/02/07 13:43:51;;;;;;;;;3.00;1.75;;;;;11.20;49.43;102136.78;4918961;28;45350;-62
2022/02/07 13:46:17;;;;;;;;;5.75;2.50;;;;;11.15;49.38;102146.53;4924319;28;45440;-61
2022/02/07 13:48:42;;;;;;;;;6.25;2.50;;;;;11.17;49.70;102146.50;4918666;28;46110;-63
2022/02/07 13:51:07;;;;;;;;;4.00;2.00;;;;;11.28;50.44;102134.03;4919196;28;45292;-62
2022/02/07 13:53:33;;;;;;;;;5.50;2.50;;;;;11.52;50.51;102140.56;4918548;28;45433;-63
2022/02/07 13:56:00;;;;;;;;;1.50;1.00;;;;;11.73;50.35;102134.91;4918614;28;45327;-64
2022/02/07 13:58:34;;;;;;;;;3.75;3.75;;;;;11.76;49.71;102141.03;4918138;28;46156;-63
2022/02/07 14:01:03;;;;;;;;;3.00;3.00;;;;;11.69;49.84;102135.00;4917984;28;45353;-63
2022/02/07 14:03:32;;;;;;;;;5.00;3.75;;;;;11.76;49.95;102137.50;4918360;28;45595;-62
2022/02/07 14:06:07;;;;;;;;;5.00;2.75;;;;;11.84;50.16;102136.44;4918882;28;45490;-61